sensor_id;sensor_type;location;lat;lon;timestamp;temperature;humidity
41447;DHT22;27185;52.040;4.490;2022-09-03T00:00:14;20.80;59.20
41447;DHT22;27185;52.040;4.490;2022-09-03T00:03:33;20.80;59.50
41447;DHT22;27185;52.040;4.490;2022-09-03T00:06:27;20.80;59.70
41447;DHT22;27185;52.040;4.490;2022-09-03T00:09:24;20.70;59.60
41447;DHT22;27185;52.040;4.490;2022-09-03T00:12:22;20.70;60.00
41447;DHT22;27185;52.040;4.490;2022-09-03T00:15:13;20.70;60.20
41447;DHT22;27185;52.040;4.490;2022-09-03T00:21:06;20.50;60.00
41447;DHT22;27185;52.040;4.490;2022-09-03T00:23:54;20.50;60.20
41447;DHT22;27185;52.040;4.490;2022-09-03T00:26:46;20.50;60.00
41447;DHT22;27185;52.040;4.490;2022-09-03T00:29:48;20.50;60.20
41447;DHT22;27185;52.040;4.490;2022-09-03T00:32:49;20.40;60.30
41447;DHT22;27185;52.040;4.490;2022-09-03T00:35:47;20.40;60.60
41447;DHT22;27185;52.040;4.490;2022-09-03T00:38:36;20.40;60.80
41447;DHT22;27185;52.040;4.490;2022-09-03T00:54:08;20.30;61.50
41447;DHT22;27185;52.040;4.490;2022-09-03T01:00:18;20.30;61.70
41447;DHT22;27185;52.040;4.490;2022-09-03T01:03:05;20.20;61.20
41447;DHT22;27185;52.040;4.490;2022-09-03T01:06:17;20.20;61.40
41447;DHT22;27185;52.040;4.490;2022-09-03T01:12:34;20.30;61.70
41447;DHT22;27185;52.040;4.490;2022-09-03T01:18:34;20.40;61.50
41447;DHT22;27185;52.040;4.490;2022-09-03T01:21:35;20.50;62.10
41447;DHT22;27185;52.040;4.490;2022-09-03T01:30:47;20.50;62.10
41447;DHT22;27185;52.040;4.490;2022-09-03T01:33:40;20.50;61.50
41447;DHT22;27185;52.040;4.490;2022-09-03T01:43:23;20.50;61.90
41447;DHT22;27185;52.040;4.490;2022-09-03T01:46:18;20.50;61.90
41447;DHT22;27185;52.040;4.490;2022-09-03T01:49:21;20.50;61.60
41447;DHT22;27185;52.040;4.490;2022-09-03T01:52:13;20.50;61.80
41447;DHT22;27185;52.040;4.490;2022-09-03T02:01:58;20.50;61.80
41447;DHT22;27185;52.040;4.490;2022-09-03T02:07:53;20.50;61.90
41447;DHT22;27185;52.040;4.490;2022-09-03T02:10:54;20.40;61.30
41447;DHT22;27185;52.040;4.490;2022-09-03T02:13:49;20.40;61.50
41447;DHT22;27185;52.040;4.490;2022-09-03T02:16:37;20.40;61.40
41447;DHT22;27185;52.040;4.490;2022-09-03T02:19:25;20.40;61.20
41447;DHT22;27185;52.040;4.490;2022-09-03T02:22:11;20.30;61.20
41447;DHT22;27185;52.040;4.490;2022-09-03T02:24:57;20.30;61.20
41447;DHT22;27185;52.040;4.490;2022-09-03T02:27:43;20.20;61.30
41447;DHT22;27185;52.040;4.490;2022-09-03T02:30:29;20.10;61.50
41447;DHT22;27185;52.040;4.490;2022-09-03T02:33:15;20.10;61.70
41447;DHT22;27185;52.040;4.490;2022-09-03T02:36:03;20.10;61.80
41447;DHT22;27185;52.040;4.490;2022-09-03T02:38:49;20.00;61.90
41447;DHT22;27185;52.040;4.490;2022-09-03T02:41:35;19.90;61.90
41447;DHT22;27185;52.040;4.490;2022-09-03T02:44:32;19.90;62.00
41447;DHT22;27185;52.040;4.490;2022-09-03T02:47:19;19.80;63.00
41447;DHT22;27185;52.040;4.490;2022-09-03T02:50:05;19.80;62.20
41447;DHT22;27185;52.040;4.490;2022-09-03T02:52:52;19.70;62.20
41447;DHT22;27185;52.040;4.490;2022-09-03T02:55:37;19.60;62.40
41447;DHT22;27185;52.040;4.490;2022-09-03T02:58:23;19.60;62.50
41447;DHT22;27185;52.040;4.490;2022-09-03T03:01:09;19.50;62.90
41447;DHT22;27185;52.040;4.490;2022-09-03T03:03:55;19.40;62.90
41447;DHT22;27185;52.040;4.490;2022-09-03T03:06:40;19.40;62.80
41447;DHT22;27185;52.040;4.490;2022-09-03T03:09:26;19.30;62.90
41447;DHT22;27185;52.040;4.490;2022-09-03T03:12:12;19.20;62.90
41447;DHT22;27185;52.040;4.490;2022-09-03T03:14:57;19.20;63.10
41447;DHT22;27185;52.040;4.490;2022-09-03T03:17:43;19.20;63.40
41447;DHT22;27185;52.040;4.490;2022-09-03T03:20:28;19.10;63.50
41447;DHT22;27185;52.040;4.490;2022-09-03T03:23:14;19.00;63.60
41447;DHT22;27185;52.040;4.490;2022-09-03T03:26:06;19.00;63.80
41447;DHT22;27185;52.040;4.490;2022-09-03T03:28:56;19.00;64.50
41447;DHT22;27185;52.040;4.490;2022-09-03T03:31:42;18.90;64.30
41447;DHT22;27185;52.040;4.490;2022-09-03T03:34:28;18.80;64.10
41447;DHT22;27185;52.040;4.490;2022-09-03T03:37:13;18.80;64.40
41447;DHT22;27185;52.040;4.490;2022-09-03T03:39:59;18.80;64.20
41447;DHT22;27185;52.040;4.490;2022-09-03T03:42:45;18.70;64.30
41447;DHT22;27185;52.040;4.490;2022-09-03T03:45:31;18.70;64.50
41447;DHT22;27185;52.040;4.490;2022-09-03T03:48:16;18.60;64.80
41447;DHT22;27185;52.040;4.490;2022-09-03T03:51:04;18.60;65.00
41447;DHT22;27185;52.040;4.490;2022-09-03T03:53:57;18.50;65.10
41447;DHT22;27185;52.040;4.490;2022-09-03T03:56:42;18.50;65.50
41447;DHT22;27185;52.040;4.490;2022-09-03T03:59:28;18.50;65.10
41447;DHT22;27185;52.040;4.490;2022-09-03T04:02:14;18.50;65.30
41447;DHT22;27185;52.040;4.490;2022-09-03T04:05:00;18.50;65.50
41447;DHT22;27185;52.040;4.490;2022-09-03T04:07:46;18.50;65.60
41447;DHT22;27185;52.040;4.490;2022-09-03T04:10:31;18.50;65.70
41447;DHT22;27185;52.040;4.490;2022-09-03T04:13:17;18.50;66.10
41447;DHT22;27185;52.040;4.490;2022-09-03T04:16:11;18.50;65.80
41447;DHT22;27185;52.040;4.490;2022-09-03T04:18:58;18.50;66.50
41447;DHT22;27185;52.040;4.490;2022-09-03T04:21:44;18.50;65.80
41447;DHT22;27185;52.040;4.490;2022-09-03T04:24:30;18.50;65.80
41447;DHT22;27185;52.040;4.490;2022-09-03T04:27:16;18.50;65.80
41447;DHT22;27185;52.040;4.490;2022-09-03T04:30:02;18.50;66.00
41447;DHT22;27185;52.040;4.490;2022-09-03T04:32:51;18.50;65.80
41447;DHT22;27185;52.040;4.490;2022-09-03T04:35:40;18.50;66.10
41447;DHT22;27185;52.040;4.490;2022-09-03T04:38:28;18.40;65.80
41447;DHT22;27185;52.040;4.490;2022-09-03T04:41:16;18.30;66.00
41447;DHT22;27185;52.040;4.490;2022-09-03T04:44:02;18.30;66.00
41447;DHT22;27185;52.040;4.490;2022-09-03T04:46:47;18.20;66.10
41447;DHT22;27185;52.040;4.490;2022-09-03T04:49:34;18.20;66.40
41447;DHT22;27185;52.040;4.490;2022-09-03T04:52:19;18.10;66.30
41447;DHT22;27185;52.040;4.490;2022-09-03T04:55:06;18.00;66.60
41447;DHT22;27185;52.040;4.490;2022-09-03T04:57:52;18.00;66.70
41447;DHT22;27185;52.040;4.490;2022-09-03T05:00:37;17.90;66.60
41447;DHT22;27185;52.040;4.490;2022-09-03T05:03:23;17.80;66.80
41447;DHT22;27185;52.040;4.490;2022-09-03T05:06:09;17.80;67.00
41447;DHT22;27185;52.040;4.490;2022-09-03T05:08:55;17.80;67.10
41447;DHT22;27185;52.040;4.490;2022-09-03T05:11:41;17.70;67.40
41447;DHT22;27185;52.040;4.490;2022-09-03T05:14:26;17.70;67.40
41447;DHT22;27185;52.040;4.490;2022-09-03T05:17:12;17.60;67.50
41447;DHT22;27185;52.040;4.490;2022-09-03T05:19:58;17.60;67.60
41447;DHT22;27185;52.040;4.490;2022-09-03T05:22:43;17.60;67.60
41447;DHT22;27185;52.040;4.490;2022-09-03T05:25:29;17.60;67.70
41447;DHT22;27185;52.040;4.490;2022-09-03T05:28:17;17.60;68.00
41447;DHT22;27185;52.040;4.490;2022-09-03T05:31:05;17.60;68.10
41447;DHT22;27185;52.040;4.490;2022-09-03T05:33:53;17.60;68.20
41447;DHT22;27185;52.040;4.490;2022-09-03T05:36:39;17.60;68.90
41447;DHT22;27185;52.040;4.490;2022-09-03T05:39:24;17.60;68.20
41447;DHT22;27185;52.040;4.490;2022-09-03T05:42:10;17.60;68.20
41447;DHT22;27185;52.040;4.490;2022-09-03T05:44:57;17.60;68.40
41447;DHT22;27185;52.040;4.490;2022-09-03T05:47:44;17.60;68.40
41447;DHT22;27185;52.040;4.490;2022-09-03T05:50:29;17.60;68.40
41447;DHT22;27185;52.040;4.490;2022-09-03T05:53:15;17.60;68.50
41447;DHT22;27185;52.040;4.490;2022-09-03T05:56:05;17.70;68.60
41447;DHT22;27185;52.040;4.490;2022-09-03T05:58:52;17.70;68.90
41447;DHT22;27185;52.040;4.490;2022-09-03T06:01:40;17.70;69.10
41447;DHT22;27185;52.040;4.490;2022-09-03T06:04:26;17.70;68.90
41447;DHT22;27185;52.040;4.490;2022-09-03T06:07:12;17.80;68.90
41447;DHT22;27185;52.040;4.490;2022-09-03T06:09:57;17.80;68.50
41447;DHT22;27185;52.040;4.490;2022-09-03T06:12:43;17.80;68.80
41447;DHT22;27185;52.040;4.490;2022-09-03T06:15:34;17.80;68.80
41447;DHT22;27185;52.040;4.490;2022-09-03T06:18:19;17.80;69.00
41447;DHT22;27185;52.040;4.490;2022-09-03T06:21:06;17.80;69.50
41447;DHT22;27185;52.040;4.490;2022-09-03T06:23:54;17.90;69.40
41447;DHT22;27185;52.040;4.490;2022-09-03T06:26:43;17.90;69.30
41447;DHT22;27185;52.040;4.490;2022-09-03T06:29:29;18.00;69.30
41447;DHT22;27185;52.040;4.490;2022-09-03T06:32:15;18.00;69.40
41447;DHT22;27185;52.040;4.490;2022-09-03T06:35:01;18.10;69.60
41447;DHT22;27185;52.040;4.490;2022-09-03T06:37:46;18.10;69.40
41447;DHT22;27185;52.040;4.490;2022-09-03T06:40:32;18.20;69.50
41447;DHT22;27185;52.040;4.490;2022-09-03T06:43:18;18.30;69.40
41447;DHT22;27185;52.040;4.490;2022-09-03T06:46:09;18.30;69.40
41447;DHT22;27185;52.040;4.490;2022-09-03T06:48:55;18.40;69.50
41447;DHT22;27185;52.040;4.490;2022-09-03T06:51:40;18.50;69.30
41447;DHT22;27185;52.040;4.490;2022-09-03T06:54:28;18.60;69.10
41447;DHT22;27185;52.040;4.490;2022-09-03T06:57:13;18.60;69.10
41447;DHT22;27185;52.040;4.490;2022-09-03T06:59:59;18.70;69.00
41447;DHT22;27185;52.040;4.490;2022-09-03T07:02:45;18.80;68.90
41447;DHT22;27185;52.040;4.490;2022-09-03T07:05:33;18.90;68.90
41447;DHT22;27185;52.040;4.490;2022-09-03T07:08:18;19.00;68.70
41447;DHT22;27185;52.040;4.490;2022-09-03T07:11:06;19.10;68.60
41447;DHT22;27185;52.040;4.490;2022-09-03T07:13:56;19.10;68.60
41447;DHT22;27185;52.040;4.490;2022-09-03T07:16:42;19.20;68.50
41447;DHT22;27185;52.040;4.490;2022-09-03T07:19:28;19.30;68.50
41447;DHT22;27185;52.040;4.490;2022-09-03T07:22:13;19.40;68.40
41447;DHT22;27185;52.040;4.490;2022-09-03T07:24:59;19.40;68.40
41447;DHT22;27185;52.040;4.490;2022-09-03T07:27:46;19.50;68.60
41447;DHT22;27185;52.040;4.490;2022-09-03T07:30:32;19.60;68.30
41447;DHT22;27185;52.040;4.490;2022-09-03T07:33:18;19.70;68.20
41447;DHT22;27185;52.040;4.490;2022-09-03T07:36:06;19.80;68.00
41447;DHT22;27185;52.040;4.490;2022-09-03T07:38:57;19.90;68.00
41447;DHT22;27185;52.040;4.490;2022-09-03T07:41:44;19.90;68.00
41447;DHT22;27185;52.040;4.490;2022-09-03T07:44:33;20.00;67.80
41447;DHT22;27185;52.040;4.490;2022-09-03T07:47:18;20.10;67.70
41447;DHT22;27185;52.040;4.490;2022-09-03T07:50:05;20.30;67.70
41447;DHT22;27185;52.040;4.490;2022-09-03T07:52:57;20.30;67.60
41447;DHT22;27185;52.040;4.490;2022-09-03T07:55:43;20.40;67.70
41447;DHT22;27185;52.040;4.490;2022-09-03T07:58:30;20.50;67.40
41447;DHT22;27185;52.040;4.490;2022-09-03T08:01:20;20.60;67.40
41447;DHT22;27185;52.040;4.490;2022-09-03T08:04:06;20.70;67.40
41447;DHT22;27185;52.040;4.490;2022-09-03T08:06:51;20.80;67.20
41447;DHT22;27185;52.040;4.490;2022-09-03T08:09:39;20.90;67.40
41447;DHT22;27185;52.040;4.490;2022-09-03T08:12:25;21.00;67.20
41447;DHT22;27185;52.040;4.490;2022-09-03T08:15:12;21.10;67.20
41447;DHT22;27185;52.040;4.490;2022-09-03T08:17:57;21.20;67.10
41447;DHT22;27185;52.040;4.490;2022-09-03T08:20:45;21.30;67.70
41447;DHT22;27185;52.040;4.490;2022-09-03T08:23:31;21.40;66.90
41447;DHT22;27185;52.040;4.490;2022-09-03T08:26:18;21.50;66.80
41447;DHT22;27185;52.040;4.490;2022-09-03T08:29:04;21.60;66.80
41447;DHT22;27185;52.040;4.490;2022-09-03T08:31:50;21.70;66.60
41447;DHT22;27185;52.040;4.490;2022-09-03T08:34:36;21.80;66.50
41447;DHT22;27185;52.040;4.490;2022-09-03T08:37:21;21.90;66.40
41447;DHT22;27185;52.040;4.490;2022-09-03T08:40:13;22.00;66.10
41447;DHT22;27185;52.040;4.490;2022-09-03T08:43:14;22.20;66.00
41447;DHT22;27185;52.040;4.490;2022-09-03T08:46:03;22.30;65.70
41447;DHT22;27185;52.040;4.490;2022-09-03T08:48:48;22.40;65.70
41447;DHT22;27185;52.040;4.490;2022-09-03T08:51:34;22.50;65.70
41447;DHT22;27185;52.040;4.490;2022-09-03T08:54:23;22.60;65.50
41447;DHT22;27185;52.040;4.490;2022-09-03T08:57:09;22.70;65.40
41447;DHT22;27185;52.040;4.490;2022-09-03T08:59:55;22.80;65.10
41447;DHT22;27185;52.040;4.490;2022-09-03T09:03:21;22.90;64.70
41447;DHT22;27185;52.040;4.490;2022-09-03T09:12:57;23.30;63.80
41447;DHT22;27185;52.040;4.490;2022-09-03T09:16:18;23.40;63.70
41447;DHT22;27185;52.040;4.490;2022-09-03T09:22:42;23.60;63.60
41447;DHT22;27185;52.040;4.490;2022-09-03T09:25:29;23.70;63.50
41447;DHT22;27185;52.040;4.490;2022-09-03T09:31:05;23.90;63.50
41447;DHT22;27185;52.040;4.490;2022-09-03T09:33:51;24.00;63.00
41447;DHT22;27185;52.040;4.490;2022-09-03T09:36:55;24.10;62.40
41447;DHT22;27185;52.040;4.490;2022-09-03T09:39:59;24.30;62.10
41447;DHT22;27185;52.040;4.490;2022-09-03T09:42:44;24.40;62.20
41447;DHT22;27185;52.040;4.490;2022-09-03T09:45:30;24.40;62.10
41447;DHT22;27185;52.040;4.490;2022-09-03T09:48:30;24.50;62.00
41447;DHT22;27185;52.040;4.490;2022-09-03T09:51:20;24.70;61.50
41447;DHT22;27185;52.040;4.490;2022-09-03T09:54:14;24.80;62.10
41447;DHT22;27185;52.040;4.490;2022-09-03T09:57:05;24.90;61.40
41447;DHT22;27185;52.040;4.490;2022-09-03T10:00:05;25.00;62.20
41447;DHT22;27185;52.040;4.490;2022-09-03T10:02:53;25.20;61.00
41447;DHT22;27185;52.040;4.490;2022-09-03T10:05:39;25.30;61.20
41447;DHT22;27185;52.040;4.490;2022-09-03T10:08:25;25.40;61.00
41447;DHT22;27185;52.040;4.490;2022-09-03T10:11:11;25.50;60.30
41447;DHT22;27185;52.040;4.490;2022-09-03T10:13:57;25.60;60.20
41447;DHT22;27185;52.040;4.490;2022-09-03T10:16:47;25.70;60.20
41447;DHT22;27185;52.040;4.490;2022-09-03T10:23:17;26.50;59.60
41447;DHT22;27185;52.040;4.490;2022-09-03T10:26:09;27.20;59.20
41447;DHT22;27185;52.040;4.490;2022-09-03T10:28:58;27.70;57.50
41447;DHT22;27185;52.040;4.490;2022-09-03T10:32:10;28.20;57.40
41447;DHT22;27185;52.040;4.490;2022-09-03T10:35:09;28.70;56.00
41447;DHT22;27185;52.040;4.490;2022-09-03T10:38:21;29.30;55.20
41447;DHT22;27185;52.040;4.490;2022-09-03T10:41:19;29.80;54.70
41447;DHT22;27185;52.040;4.490;2022-09-03T10:44:28;30.20;54.90
41447;DHT22;27185;52.040;4.490;2022-09-03T10:47:41;30.50;54.10
41447;DHT22;27185;52.040;4.490;2022-09-03T10:50:46;30.90;53.10
41447;DHT22;27185;52.040;4.490;2022-09-03T10:59:59;31.90;52.10
41447;DHT22;27185;52.040;4.490;2022-09-03T11:02:56;32.00;52.00
41447;DHT22;27185;52.040;4.490;2022-09-03T11:08:52;32.40;51.80
41447;DHT22;27185;52.040;4.490;2022-09-03T11:11:45;32.60;50.70
41447;DHT22;27185;52.040;4.490;2022-09-03T11:14:42;32.80;50.40
41447;DHT22;27185;52.040;4.490;2022-09-03T11:17:31;32.90;50.20
41447;DHT22;27185;52.040;4.490;2022-09-03T11:20:24;33.30;51.30
41447;DHT22;27185;52.040;4.490;2022-09-03T11:23:10;33.30;50.10
41447;DHT22;27185;52.040;4.490;2022-09-03T11:26:01;33.40;50.10
41447;DHT22;27185;52.040;4.490;2022-09-03T11:32:07;33.60;49.30
41447;DHT22;27185;52.040;4.490;2022-09-03T11:34:55;33.80;49.20
41447;DHT22;27185;52.040;4.490;2022-09-03T11:37:51;34.00;49.60
41447;DHT22;27185;52.040;4.490;2022-09-03T11:40:39;34.10;48.70
41447;DHT22;27185;52.040;4.490;2022-09-03T11:43:27;34.30;49.10
41447;DHT22;27185;52.040;4.490;2022-09-03T11:49:11;34.40;48.60
41447;DHT22;27185;52.040;4.490;2022-09-03T11:52:03;34.50;48.30
41447;DHT22;27185;52.040;4.490;2022-09-03T11:54:52;34.70;47.00
41447;DHT22;27185;52.040;4.490;2022-09-03T11:57:41;34.80;48.60
41447;DHT22;27185;52.040;4.490;2022-09-03T12:00:28;34.90;47.40
41447;DHT22;27185;52.040;4.490;2022-09-03T12:03:14;35.10;47.90
41447;DHT22;27185;52.040;4.490;2022-09-03T12:09:29;35.20;47.40
41447;DHT22;27185;52.040;4.490;2022-09-03T12:18:10;35.50;45.30
41447;DHT22;27185;52.040;4.490;2022-09-03T12:21:07;35.50;45.50
41447;DHT22;27185;52.040;4.490;2022-09-03T12:23:54;35.40;46.10
41447;DHT22;27185;52.040;4.490;2022-09-03T12:26:41;35.30;46.40
41447;DHT22;27185;52.040;4.490;2022-09-03T12:29:27;35.30;46.60
41447;DHT22;27185;52.040;4.490;2022-09-03T12:32:13;35.50;47.40
41447;DHT22;27185;52.040;4.490;2022-09-03T12:35:10;35.60;46.50
41447;DHT22;27185;52.040;4.490;2022-09-03T12:37:57;35.60;46.10
41447;DHT22;27185;52.040;4.490;2022-09-03T12:40:42;35.70;45.90
41447;DHT22;27185;52.040;4.490;2022-09-03T12:43:28;35.70;45.90
41447;DHT22;27185;52.040;4.490;2022-09-03T12:46:14;35.70;45.90
41447;DHT22;27185;52.040;4.490;2022-09-03T12:49:03;35.80;45.60
41447;DHT22;27185;52.040;4.490;2022-09-03T12:51:49;35.80;45.50
41447;DHT22;27185;52.040;4.490;2022-09-03T12:54:42;35.90;45.40
41447;DHT22;27185;52.040;4.490;2022-09-03T12:57:37;36.10;45.00
41447;DHT22;27185;52.040;4.490;2022-09-03T13:00:28;36.20;44.90
41447;DHT22;27185;52.040;4.490;2022-09-03T13:03:38;36.40;44.50
41447;DHT22;27185;52.040;4.490;2022-09-03T13:06:40;36.50;44.80
41447;DHT22;27185;52.040;4.490;2022-09-03T13:09:27;36.60;43.90
41447;DHT22;27185;52.040;4.490;2022-09-03T13:12:45;36.70;43.80
41447;DHT22;27185;52.040;4.490;2022-09-03T13:15:33;36.60;44.60
41447;DHT22;27185;52.040;4.490;2022-09-03T13:18:26;36.60;43.80
41447;DHT22;27185;52.040;4.490;2022-09-03T13:21:38;36.60;43.50
41447;DHT22;27185;52.040;4.490;2022-09-03T13:25:12;36.70;43.20
41447;DHT22;27185;52.040;4.490;2022-09-03T13:31:08;36.70;42.80
41447;DHT22;27185;52.040;4.490;2022-09-03T13:34:16;36.70;43.20
41447;DHT22;27185;52.040;4.490;2022-09-03T13:37:44;36.70;43.90
41447;DHT22;27185;52.040;4.490;2022-09-03T13:40:45;36.70;43.30
41447;DHT22;27185;52.040;4.490;2022-09-03T13:44:00;36.80;42.60
41447;DHT22;27185;52.040;4.490;2022-09-03T13:47:07;36.80;43.40
41447;DHT22;27185;52.040;4.490;2022-09-03T13:50:20;37.00;43.40
41447;DHT22;27185;52.040;4.490;2022-09-03T13:53:19;37.10;43.00
41447;DHT22;27185;52.040;4.490;2022-09-03T13:56:18;37.10;43.20
41447;DHT22;27185;52.040;4.490;2022-09-03T14:09:00;37.20;41.90
41447;DHT22;27185;52.040;4.490;2022-09-03T14:15:00;37.20;42.20
41447;DHT22;27185;52.040;4.490;2022-09-03T14:18:08;37.30;41.40
41447;DHT22;27185;52.040;4.490;2022-09-03T14:20:58;37.40;41.70
41447;DHT22;27185;52.040;4.490;2022-09-03T14:26:51;37.60;41.40
41447;DHT22;27185;52.040;4.490;2022-09-03T14:29:50;37.70;42.20
41447;DHT22;27185;52.040;4.490;2022-09-03T14:32:56;37.90;42.10
41447;DHT22;27185;52.040;4.490;2022-09-03T14:36:19;38.00;42.10
41447;DHT22;27185;52.040;4.490;2022-09-03T14:40:03;38.10;42.30
41447;DHT22;27185;52.040;4.490;2022-09-03T14:55:16;38.00;42.10
41447;DHT22;27185;52.040;4.490;2022-09-03T15:01:11;37.80;41.50
41447;DHT22;27185;52.040;4.490;2022-09-03T15:04:29;37.80;42.00
41447;DHT22;27185;52.040;4.490;2022-09-03T15:13:24;37.70;41.30
41447;DHT22;27185;52.040;4.490;2022-09-03T15:19:42;37.70;41.60
41447;DHT22;27185;52.040;4.490;2022-09-03T15:22:56;37.70;41.90
41447;DHT22;27185;52.040;4.490;2022-09-03T15:40:55;37.70;40.90
41447;DHT22;27185;52.040;4.490;2022-09-03T15:43:47;37.70;40.80
41447;DHT22;27185;52.040;4.490;2022-09-03T15:46:39;37.60;41.00
41447;DHT22;27185;52.040;4.490;2022-09-03T15:49:51;37.60;41.20
41447;DHT22;27185;52.040;4.490;2022-09-03T15:53:23;37.60;40.80
41447;DHT22;27185;52.040;4.490;2022-09-03T16:05:59;37.30;41.10
41447;DHT22;27185;52.040;4.490;2022-09-03T16:08:56;37.20;41.40
41447;DHT22;27185;52.040;4.490;2022-09-03T16:15:12;37.00;41.40
41447;DHT22;27185;52.040;4.490;2022-09-03T16:18:07;36.90;41.60
41447;DHT22;27185;52.040;4.490;2022-09-03T16:27:23;36.40;41.60
41447;DHT22;27185;52.040;4.490;2022-09-03T16:30:13;36.00;41.60
41447;DHT22;27185;52.040;4.490;2022-09-03T16:39:20;35.50;42.10
41447;DHT22;27185;52.040;4.490;2022-09-03T16:48:14;35.20;42.40
41447;DHT22;27185;52.040;4.490;2022-09-03T16:51:13;35.20;42.80
41447;DHT22;27185;52.040;4.490;2022-09-03T16:54:11;35.20;43.10
41447;DHT22;27185;52.040;4.490;2022-09-03T16:57:16;35.10;42.90
41447;DHT22;27185;52.040;4.490;2022-09-03T17:00:07;35.10;42.90
41447;DHT22;27185;52.040;4.490;2022-09-03T17:03:18;35.00;42.70
41447;DHT22;27185;52.040;4.490;2022-09-03T17:24:35;32.70;44.60
41447;DHT22;27185;52.040;4.490;2022-09-03T17:33:39;31.50;45.80
41447;DHT22;27185;52.040;4.490;2022-09-03T17:36:35;31.20;45.00
41447;DHT22;27185;52.040;4.490;2022-09-03T17:39:45;30.80;45.70
41447;DHT22;27185;52.040;4.490;2022-09-03T17:48:52;29.90;47.00
41447;DHT22;27185;52.040;4.490;2022-09-03T17:51:46;29.60;47.30
41447;DHT22;27185;52.040;4.490;2022-09-03T17:54:46;29.40;47.70
41447;DHT22;27185;52.040;4.490;2022-09-03T17:57:44;29.20;48.60
41447;DHT22;27185;52.040;4.490;2022-09-03T18:00:56;29.00;48.30
41447;DHT22;27185;52.040;4.490;2022-09-03T18:04:12;28.80;48.80
41447;DHT22;27185;52.040;4.490;2022-09-03T18:07:09;28.70;48.70
41447;DHT22;27185;52.040;4.490;2022-09-03T18:13:10;28.40;49.60
41447;DHT22;27185;52.040;4.490;2022-09-03T18:16:44;28.20;50.10
41447;DHT22;27185;52.040;4.490;2022-09-03T18:19:17;28.10;49.80
41447;DHT22;27185;52.040;4.490;2022-09-03T18:22:14;27.90;50.20
41447;DHT22;27185;52.040;4.490;2022-09-03T18:25:21;27.80;49.90
41447;DHT22;27185;52.040;4.490;2022-09-03T18:28:45;27.70;50.40
41447;DHT22;27185;52.040;4.490;2022-09-03T18:31:50;27.60;51.10
41447;DHT22;27185;52.040;4.490;2022-09-03T18:34:54;27.40;50.60
41447;DHT22;27185;52.040;4.490;2022-09-03T18:38:02;27.30;51.00
41447;DHT22;27185;52.040;4.490;2022-09-03T18:51:44;27.00;51.70
41447;DHT22;27185;52.040;4.490;2022-09-03T18:55:07;27.00;52.30
41447;DHT22;27185;52.040;4.490;2022-09-03T18:58:31;26.90;52.00
41447;DHT22;27185;52.040;4.490;2022-09-03T19:01:41;26.90;52.70
41447;DHT22;27185;52.040;4.490;2022-09-03T19:05:09;26.90;52.40
41447;DHT22;27185;52.040;4.490;2022-09-03T19:08:27;26.90;53.00
41447;DHT22;27185;52.040;4.490;2022-09-03T19:22:09;26.90;53.70
41447;DHT22;27185;52.040;4.490;2022-09-03T19:25:14;26.80;53.60
41447;DHT22;27185;52.040;4.490;2022-09-03T19:28:24;26.80;53.00
41447;DHT22;27185;52.040;4.490;2022-09-03T19:31:43;26.80;53.70
41447;DHT22;27185;52.040;4.490;2022-09-03T19:35:07;26.80;54.30
41447;DHT22;27185;52.040;4.490;2022-09-03T19:38:27;26.70;54.00
41447;DHT22;27185;52.040;4.490;2022-09-03T19:42:02;26.70;53.80
41447;DHT22;27185;52.040;4.490;2022-09-03T19:45:16;26.70;53.70
41447;DHT22;27185;52.040;4.490;2022-09-03T19:51:49;26.60;54.00
41447;DHT22;27185;52.040;4.490;2022-09-03T19:54:56;26.50;54.40
41447;DHT22;27185;52.040;4.490;2022-09-03T19:58:01;26.50;54.10
41447;DHT22;27185;52.040;4.490;2022-09-03T20:01:05;26.40;54.40
41447;DHT22;27185;52.040;4.490;2022-09-03T20:04:13;26.30;54.40
41447;DHT22;27185;52.040;4.490;2022-09-03T20:07:19;26.20;54.80
41447;DHT22;27185;52.040;4.490;2022-09-03T20:10:24;26.20;54.80
41447;DHT22;27185;52.040;4.490;2022-09-03T20:13:16;26.10;55.00
41447;DHT22;27185;52.040;4.490;2022-09-03T20:16:20;26.00;55.10
41447;DHT22;27185;52.040;4.490;2022-09-03T20:22:29;25.90;56.10
41447;DHT22;27185;52.040;4.490;2022-09-03T20:38:18;25.50;58.50
41447;DHT22;27185;52.040;4.490;2022-09-03T20:41:16;25.30;59.40
41447;DHT22;27185;52.040;4.490;2022-09-03T20:51:03;24.90;58.50
41447;DHT22;27185;52.040;4.490;2022-09-03T21:00:11;24.50;58.50
41447;DHT22;27185;52.040;4.490;2022-09-03T21:03:05;24.40;59.00
41447;DHT22;27185;52.040;4.490;2022-09-03T21:05:57;24.30;58.80
41447;DHT22;27185;52.040;4.490;2022-09-03T21:15:17;24.00;60.40
41447;DHT22;27185;52.040;4.490;2022-09-03T21:21:05;23.90;58.70
41447;DHT22;27185;52.040;4.490;2022-09-03T21:27:07;23.70;61.50
41447;DHT22;27185;52.040;4.490;2022-09-03T21:30:00;23.60;60.40
41447;DHT22;27185;52.040;4.490;2022-09-03T21:32:51;23.50;61.00
41447;DHT22;27185;52.040;4.490;2022-09-03T21:35:44;23.50;61.20
41447;DHT22;27185;52.040;4.490;2022-09-03T21:38:35;23.40;61.30
41447;DHT22;27185;52.040;4.490;2022-09-03T21:41:30;23.40;61.20
41447;DHT22;27185;52.040;4.490;2022-09-03T21:53:11;23.20;63.00
41447;DHT22;27185;52.040;4.490;2022-09-03T22:02:12;23.00;63.10
41447;DHT22;27185;52.040;4.490;2022-09-03T22:05:02;23.00;63.00
41447;DHT22;27185;52.040;4.490;2022-09-03T22:11:04;22.90;63.70
41447;DHT22;27185;52.040;4.490;2022-09-03T22:17:07;22.80;63.30
41447;DHT22;27185;52.040;4.490;2022-09-03T22:19:55;22.70;64.70
41447;DHT22;27185;52.040;4.490;2022-09-03T22:22:46;22.60;63.50
41447;DHT22;27185;52.040;4.490;2022-09-03T22:25:44;22.50;63.80
41447;DHT22;27185;52.040;4.490;2022-09-03T22:31:36;22.40;64.40
41447;DHT22;27185;52.040;4.490;2022-09-03T22:40:24;22.30;64.40
41447;DHT22;27185;52.040;4.490;2022-09-03T22:43:39;22.20;64.50
41447;DHT22;27185;52.040;4.490;2022-09-03T22:46:31;22.20;66.20
41447;DHT22;27185;52.040;4.490;2022-09-03T22:49:32;22.10;65.40
41447;DHT22;27185;52.040;4.490;2022-09-03T22:52:22;22.10;66.00
41447;DHT22;27185;52.040;4.490;2022-09-03T22:58:16;22.00;65.30
41447;DHT22;27185;52.040;4.490;2022-09-03T23:01:08;22.00;65.60
41447;DHT22;27185;52.040;4.490;2022-09-03T23:04:03;21.90;65.90
41447;DHT22;27185;52.040;4.490;2022-09-03T23:06:58;21.90;66.40
41447;DHT22;27185;52.040;4.490;2022-09-03T23:09:51;21.90;66.70
41447;DHT22;27185;52.040;4.490;2022-09-03T23:12:45;21.80;66.70
41447;DHT22;27185;52.040;4.490;2022-09-03T23:15:33;21.80;66.80
41447;DHT22;27185;52.040;4.490;2022-09-03T23:18:23;21.80;66.80
41447;DHT22;27185;52.040;4.490;2022-09-03T23:24:15;21.70;68.30
41447;DHT22;27185;52.040;4.490;2022-09-03T23:27:06;21.70;68.40
41447;DHT22;27185;52.040;4.490;2022-09-03T23:29:59;21.60;67.90
41447;DHT22;27185;52.040;4.490;2022-09-03T23:32:48;21.60;68.70